createdAt,value
2022-10-07T00:02:11.379Z,7.60
2022-10-07T00:04:40.043Z,7.10
2022-10-07T00:07:07.293Z,6.77
2022-10-07T00:09:34.541Z,6.70
2022-10-07T00:12:01.761Z,7.87
2022-10-07T00:14:30.250Z,5.90
2022-10-07T00:16:57.579Z,7.30
2022-10-07T00:19:24.876Z,6.30
2022-10-07T00:21:53.535Z,6.73
2022-10-07T00:24:20.765Z,6.40
2022-10-07T00:26:47.999Z,6.87
2022-10-07T00:29:15.254Z,6.73
2022-10-07T00:31:42.525Z,7.80
2022-10-07T00:34:11.745Z,7.30
2022-10-07T00:36:38.974Z,8.33
2022-10-07T00:39:08.453Z,10.10
2022-10-07T00:41:36.777Z,9.73
2022-10-07T00:44:19.476Z,8.93
2022-10-07T00:46:46.593Z,8.80
2022-10-07T00:49:14.330Z,8.80
2022-10-07T00:51:42.178Z,8.73
2022-10-07T00:54:11.811Z,8.53
2022-10-07T00:56:39.449Z,9.47
2022-10-07T00:59:06.958Z,8.87
2022-10-07T01:01:34.366Z,8.10
2022-10-07T01:04:03.015Z,8.33
2022-10-07T01:06:30.194Z,7.17
2022-10-07T01:08:57.356Z,7.30
2022-10-07T01:11:31.452Z,6.67
2022-10-07T01:14:02.806Z,7.10
2022-10-07T01:16:32.524Z,5.80
2022-10-07T01:19:04.849Z,8.00
2022-10-07T01:21:37.600Z,6.33
2022-10-07T01:24:09.660Z,6.00
2022-10-07T01:26:48.382Z,6.10
2022-10-07T01:29:18.736Z,6.80
2022-10-07T01:31:48.407Z,7.43
2022-10-07T01:34:16.626Z,7.20
2022-10-07T01:36:45.313Z,6.27
2022-10-07T01:39:14.354Z,5.60
2022-10-07T01:41:42.038Z,5.97
2022-10-07T01:44:12.497Z,6.60
2022-10-07T01:46:39.680Z,5.87
2022-10-07T01:49:08.306Z,5.30
2022-10-07T01:51:38.188Z,5.73
2022-10-07T01:54:09.393Z,5.20
2022-10-07T01:56:42.605Z,5.60
2022-10-07T01:59:32.469Z,5.43
2022-10-07T02:02:02.720Z,5.10
2022-10-07T02:04:36.123Z,5.53
2022-10-07T02:07:07.750Z,4.97
2022-10-07T02:09:36.353Z,4.80
2022-10-07T02:12:07.717Z,5.00
2022-10-07T02:14:38.056Z,5.80
2022-10-07T02:17:07.242Z,5.20
2022-10-07T02:19:35.465Z,5.67
2022-10-07T02:22:02.673Z,5.23
2022-10-07T02:24:33.619Z,4.80
2022-10-07T02:27:04.416Z,4.90
2022-10-07T02:29:34.657Z,5.83
2022-10-07T02:32:05.174Z,4.40
2022-10-07T02:34:33.041Z,4.80
2022-10-07T02:37:03.699Z,4.50
2022-10-07T02:39:32.629Z,7.47
2022-10-07T02:42:02.372Z,6.17
2022-10-07T02:44:31.747Z,4.83
2022-10-07T02:47:02.263Z,5.03
2022-10-07T02:49:31.782Z,4.70
2022-10-07T02:52:00.418Z,6.60
2022-10-07T02:54:31.943Z,3.90
2022-10-07T02:57:00.537Z,4.07
2022-10-07T02:59:28.880Z,4.67
2022-10-07T03:01:58.651Z,5.07
2022-10-07T03:04:25.976Z,5.20
2022-10-07T03:06:54.905Z,4.83
2022-10-07T03:09:24.096Z,4.37
2022-10-07T03:11:51.441Z,4.23
2022-10-07T03:14:18.501Z,4.80
2022-10-07T03:16:45.798Z,4.80
2022-10-07T03:19:12.884Z,5.60
2022-10-07T03:21:43.537Z,4.80
2022-10-07T03:24:12.675Z,3.93
2022-10-07T03:26:44.620Z,3.23
2022-10-07T03:29:13.790Z,4.50
2022-10-07T03:31:40.989Z,4.00
2022-10-07T03:34:08.240Z,3.60
2022-10-07T03:36:36.382Z,5.53
2022-10-07T03:39:05.023Z,4.80
2022-10-07T03:41:34.242Z,4.37
2022-10-07T03:44:02.762Z,4.13
2022-10-07T03:46:30.770Z,4.73
2022-10-07T03:48:57.994Z,3.77
2022-10-07T03:51:25.647Z,5.30
2022-10-07T03:53:52.761Z,4.70
2022-10-07T03:56:19.906Z,5.20
2022-10-07T03:58:48.381Z,5.23
2022-10-07T04:01:15.623Z,5.00
2022-10-07T04:03:47.910Z,4.97
2022-10-07T04:06:15.039Z,4.97
2022-10-07T04:08:42.146Z,4.70
2022-10-07T04:11:09.427Z,4.40
2022-10-07T04:13:39.598Z,4.77
2022-10-07T04:16:09.095Z,3.97
2022-10-07T04:18:37.114Z,4.87
2022-10-07T04:21:04.573Z,4.37
2022-10-07T04:23:33.636Z,4.70
2022-10-07T04:26:00.931Z,4.50
2022-10-07T04:28:28.877Z,5.33
2022-10-07T04:31:04.102Z,5.20
2022-10-07T04:33:38.985Z,4.97
2022-10-07T04:36:06.457Z,4.40
2022-10-07T04:38:36.933Z,6.00
2022-10-07T04:41:07.231Z,5.40
2022-10-07T04:43:36.509Z,5.20
2022-10-07T04:46:09.004Z,4.33
2022-10-07T04:48:43.795Z,4.90
2022-10-07T04:51:11.126Z,5.23
2022-10-07T04:53:40.030Z,5.47
2022-10-07T04:56:08.498Z,6.13
2022-10-07T04:58:36.682Z,5.03
2022-10-07T05:01:08.871Z,5.80
2022-10-07T05:03:39.087Z,4.70
2022-10-07T05:06:08.494Z,5.10
2022-10-07T05:08:39.161Z,5.63
2022-10-07T05:11:06.458Z,5.57
2022-10-07T05:13:40.448Z,5.20
2022-10-07T05:16:07.731Z,5.60
2022-10-07T05:18:34.884Z,4.87
2022-10-07T05:21:05.086Z,5.30
2022-10-07T05:23:34.505Z,7.20
2022-10-07T05:26:02.495Z,6.27
2022-10-07T05:28:30.798Z,4.83
2022-10-07T05:31:02.286Z,5.50
2022-10-07T05:33:29.602Z,5.23
2022-10-07T05:35:56.697Z,5.20
2022-10-07T05:38:23.889Z,5.23
2022-10-07T05:40:57.011Z,5.63
2022-10-07T05:43:24.178Z,6.20
2022-10-07T05:45:57.603Z,5.03
2022-10-07T05:48:24.794Z,5.63
2022-10-07T05:50:52.244Z,5.67
2022-10-07T05:53:19.366Z,6.00
2022-10-07T05:55:46.518Z,5.70
2022-10-07T05:58:15.017Z,5.83
2022-10-07T06:00:47.999Z,5.57
2022-10-07T06:03:15.164Z,5.23
2022-10-07T06:05:42.425Z,7.60
2022-10-07T06:08:09.582Z,6.03
2022-10-07T06:10:36.783Z,5.50
2022-10-07T06:13:04.008Z,5.10
2022-10-07T06:15:32.610Z,5.10
2022-10-07T06:18:00.225Z,5.77
2022-10-07T06:20:28.271Z,5.60
2022-10-07T06:22:57.007Z,5.30
2022-10-07T06:25:24.345Z,5.33
2022-10-07T06:27:54.304Z,4.93
2022-10-07T06:30:22.734Z,5.07
2022-10-07T06:32:51.293Z,4.40
2022-10-07T06:35:18.731Z,5.20
2022-10-07T06:37:46.171Z,6.10
2022-10-07T06:40:13.534Z,5.20
2022-10-07T06:42:40.643Z,6.07
2022-10-07T06:45:24.459Z,4.93
2022-10-07T06:47:54.854Z,4.90
2022-10-07T06:50:23.245Z,4.90
2022-10-07T06:52:50.606Z,6.20
2022-10-07T06:55:18.074Z,5.77
2022-10-07T06:57:46.330Z,5.43
2022-10-07T07:00:16.476Z,4.77
2022-10-07T07:02:44.515Z,6.33
2022-10-07T07:05:15.557Z,5.10
2022-10-07T07:07:45.394Z,5.23
2022-10-07T07:10:12.989Z,6.37
2022-10-07T07:12:43.803Z,5.20
2022-10-07T07:15:11.351Z,6.10
2022-10-07T07:17:39.870Z,5.37
2022-10-07T07:20:07.542Z,5.77
2022-10-07T07:22:36.424Z,5.93
2022-10-07T07:25:04.669Z,6.20
2022-10-07T07:27:32.034Z,5.73
2022-10-07T07:29:59.368Z,5.80
2022-10-07T07:32:26.514Z,5.50
2022-10-07T07:37:25.672Z,5.10
2022-10-07T07:39:57.120Z,5.40
2022-10-07T07:42:24.274Z,6.00
2022-10-07T07:44:51.388Z,5.33
2022-10-07T07:47:20.479Z,5.50
2022-10-07T07:49:49.358Z,5.30
2022-10-07T07:52:22.685Z,4.37
2022-10-07T07:54:50.087Z,6.00
2022-10-07T07:57:19.029Z,4.73
2022-10-07T07:59:46.200Z,4.80
2022-10-07T08:02:15.892Z,6.10
2022-10-07T08:04:46.752Z,4.83
2022-10-07T08:07:14.693Z,5.60
2022-10-07T08:09:45.002Z,5.17
2022-10-07T08:12:13.281Z,5.03
2022-10-07T08:14:42.128Z,5.73
2022-10-07T08:17:09.472Z,5.27
2022-10-07T08:19:36.795Z,5.63
2022-10-07T08:22:05.349Z,5.20
2022-10-07T08:24:32.714Z,3.73
2022-10-07T08:26:59.815Z,5.37
2022-10-07T08:29:27.095Z,5.17
2022-10-07T08:31:55.593Z,5.30
2022-10-07T08:34:22.939Z,4.40
2022-10-07T08:36:50.031Z,4.50
2022-10-07T08:39:17.144Z,4.50
2022-10-07T08:41:48.799Z,4.53
2022-10-07T08:44:18.358Z,4.13
2022-10-07T08:46:49.923Z,4.70
2022-10-07T08:49:20.634Z,4.73
2022-10-07T08:51:48.862Z,4.30
2022-10-07T08:54:17.063Z,4.17
2022-10-07T08:56:44.414Z,3.80
2022-10-07T08:59:16.591Z,4.20
2022-10-07T09:01:51.090Z,3.87
2022-10-07T09:04:28.993Z,4.20
2022-10-07T09:06:59.046Z,3.93
2022-10-07T09:09:28.814Z,4.07
2022-10-07T09:11:56.869Z,4.47
2022-10-07T09:14:26.457Z,5.27
2022-10-07T09:16:54.650Z,4.97
2022-10-07T09:19:29.587Z,4.50
2022-10-07T09:21:59.879Z,3.90
2022-10-07T09:24:28.344Z,4.23
2022-10-07T09:26:57.171Z,4.37
2022-10-07T09:29:25.367Z,4.47
2022-10-07T09:31:52.803Z,4.73
2022-10-07T09:34:21.072Z,3.50
2022-10-07T09:37:06.841Z,4.00
2022-10-07T09:39:35.264Z,4.77
2022-10-07T09:42:04.561Z,4.00
2022-10-07T09:44:31.659Z,4.67
2022-10-07T09:46:59.588Z,3.90
2022-10-07T09:49:32.073Z,4.60
2022-10-07T09:51:59.724Z,4.80
2022-10-07T09:54:27.358Z,4.07
2022-10-07T09:56:57.048Z,3.80
2022-10-07T09:59:25.477Z,4.77
2022-10-07T10:01:53.935Z,4.30
2022-10-07T10:04:23.962Z,4.47
2022-10-07T10:06:52.112Z,4.47
2022-10-07T10:09:21.165Z,4.43
2022-10-07T10:12:01.573Z,4.03
2022-10-07T10:14:29.559Z,3.43
2022-10-07T10:16:56.710Z,3.60
2022-10-07T10:19:25.344Z,3.90
2022-10-07T10:21:52.913Z,4.07
2022-10-07T10:24:20.037Z,4.20
2022-10-07T10:26:52.162Z,3.60
2022-10-07T10:29:38.256Z,4.03
2022-10-07T10:32:20.345Z,4.73
2022-10-07T10:34:50.419Z,4.13
2022-10-07T10:37:19.221Z,4.10
2022-10-07T10:39:50.906Z,3.17
2022-10-07T10:42:21.518Z,4.23
2022-10-07T10:45:00.544Z,3.53
2022-10-07T10:47:32.663Z,3.20
2022-10-07T10:50:07.662Z,3.20
2022-10-07T10:52:40.603Z,3.07
2022-10-07T10:55:17.112Z,3.27
2022-10-07T10:57:50.642Z,3.77
2022-10-07T11:00:20.332Z,3.90
2022-10-07T11:03:01.240Z,3.50
2022-10-07T11:05:31.204Z,3.30
2022-10-07T11:08:01.865Z,3.30
2022-10-07T11:10:31.086Z,3.20
2022-10-07T11:12:59.385Z,3.33
2022-10-07T11:15:29.521Z,3.17
2022-10-07T11:17:59.104Z,3.70
2022-10-07T11:20:29.767Z,4.53
2022-10-07T11:22:59.597Z,3.60
2022-10-07T11:25:29.605Z,3.17
2022-10-07T11:28:02.307Z,3.90
2022-10-07T11:30:34.232Z,3.80
2022-10-07T11:33:04.784Z,3.93
2022-10-07T11:35:34.306Z,2.90
2022-10-07T11:38:03.784Z,3.53
2022-10-07T11:40:32.246Z,4.00
2022-10-07T11:43:03.353Z,3.50
2022-10-07T11:45:34.799Z,3.27
2022-10-07T11:48:05.538Z,3.43
2022-10-07T11:50:36.417Z,4.07
2022-10-07T11:53:06.612Z,2.87
2022-10-07T11:55:36.664Z,3.13
2022-10-07T11:58:04.699Z,3.20
2022-10-07T12:00:34.314Z,2.73
2022-10-07T12:03:12.223Z,2.73
2022-10-07T12:06:06.611Z,3.50
2022-10-07T12:08:34.633Z,3.17
2022-10-07T12:11:22.411Z,3.53
2022-10-07T12:13:50.331Z,2.87
2022-10-07T12:16:36.275Z,3.40
2022-10-07T12:19:17.940Z,3.53
2022-10-07T12:22:08.871Z,3.20
2022-10-07T12:24:36.986Z,3.13
2022-10-07T12:27:07.517Z,3.57
2022-10-07T12:29:44.205Z,3.30
2022-10-07T12:32:26.191Z,3.57
2022-10-07T12:34:54.634Z,3.33
2022-10-07T12:37:40.505Z,3.43
2022-10-07T12:40:13.783Z,2.60
2022-10-07T12:42:44.236Z,3.03
2022-10-07T12:45:11.822Z,2.77
2022-10-07T12:47:39.006Z,2.27
2022-10-07T12:50:10.673Z,3.20
2022-10-07T12:52:42.762Z,3.43
2022-10-07T12:55:11.115Z,2.80
2022-10-07T12:57:40.247Z,3.53
2022-10-07T13:00:08.394Z,3.37
2022-10-07T13:02:47.163Z,3.40
2022-10-07T13:05:32.853Z,2.73
2022-10-07T13:08:13.929Z,3.00
2022-10-07T13:11:01.048Z,3.80
2022-10-07T13:13:30.581Z,3.47
2022-10-07T13:16:01.149Z,3.20
2022-10-07T13:18:33.127Z,3.73
2022-10-07T13:21:06.281Z,3.53
2022-10-07T13:23:35.199Z,2.83
2022-10-07T13:26:02.670Z,3.20
2022-10-07T13:28:33.193Z,2.60
2022-10-07T13:31:12.799Z,3.23
2022-10-07T13:33:39.942Z,3.70
2022-10-07T13:36:08.857Z,2.97
2022-10-07T13:38:37.309Z,3.13
2022-10-07T13:41:07.237Z,3.00
2022-10-07T13:43:36.204Z,3.13
2022-10-07T13:46:04.146Z,3.00
2022-10-07T13:48:32.471Z,3.30
2022-10-07T13:50:59.940Z,2.90
2022-10-07T13:53:28.416Z,3.03
2022-10-07T13:56:06.709Z,2.87
2022-10-07T13:58:34.286Z,3.03
2022-10-07T14:01:03.451Z,2.97
2022-10-07T14:03:30.653Z,3.07
2022-10-07T14:05:57.757Z,3.10
2022-10-07T14:08:25.645Z,3.00
2022-10-07T14:10:54.241Z,2.50
2022-10-07T14:13:22.987Z,3.00
2022-10-07T14:15:51.109Z,3.03
2022-10-07T14:18:18.337Z,3.67
2022-10-07T14:20:50.273Z,2.43
2022-10-07T14:23:19.843Z,2.47
2022-10-07T14:25:53.793Z,2.63
2022-10-07T14:28:27.104Z,2.67
2022-10-07T14:31:09.344Z,2.93
2022-10-07T14:33:44.948Z,3.00
2022-10-07T14:36:13.021Z,2.90
2022-10-07T14:38:40.510Z,3.47
2022-10-07T14:41:07.963Z,2.63
2022-10-07T14:43:37.650Z,3.03
2022-10-07T14:46:08.430Z,3.30
2022-10-07T14:48:35.602Z,2.17
2022-10-07T14:51:04.103Z,2.87
2022-10-07T14:53:31.278Z,3.37
2022-10-07T14:55:58.399Z,3.03
2022-10-07T14:58:25.542Z,2.50
2022-10-07T15:00:52.687Z,3.40
2022-10-07T15:03:19.798Z,3.03
2022-10-07T15:05:46.974Z,3.37
2022-10-07T15:08:15.786Z,2.57
2022-10-07T15:10:43.188Z,2.33
2022-10-07T15:13:13.222Z,2.83
2022-10-07T15:15:40.965Z,2.80
2022-10-07T15:18:08.067Z,2.37
2022-10-07T15:20:35.288Z,2.97
2022-10-07T15:23:02.393Z,2.60
2022-10-07T15:25:30.920Z,3.37
2022-10-07T15:27:58.359Z,4.03
2022-10-07T15:30:25.575Z,2.73
2022-10-07T15:32:54.662Z,2.40
2022-10-07T15:35:21.745Z,3.33
2022-10-07T15:37:48.855Z,2.20
2022-10-07T15:40:15.984Z,3.87
2022-10-07T15:42:44.871Z,2.50
2022-10-07T15:45:12.295Z,2.83
2022-10-07T15:47:39.432Z,2.43
2022-10-07T15:50:07.366Z,2.83
2022-10-07T15:52:34.459Z,2.53
2022-10-07T15:55:07.275Z,3.50
2022-10-07T15:57:35.057Z,2.60
2022-10-07T16:00:04.491Z,3.10
2022-10-07T16:02:39.113Z,2.73
2022-10-07T16:05:06.521Z,2.53
2022-10-07T16:07:33.683Z,2.80
2022-10-07T16:10:00.780Z,2.53
2022-10-07T16:12:27.957Z,2.67
2022-10-07T16:14:55.061Z,3.00
2022-10-07T16:17:23.507Z,2.33
2022-10-07T16:19:50.612Z,2.67
2022-10-07T16:22:17.817Z,2.43
2022-10-07T16:24:44.943Z,3.00
2022-10-07T16:27:12.054Z,3.30
2022-10-07T16:29:39.189Z,2.87
2022-10-07T16:32:06.796Z,2.73
2022-10-07T16:34:35.241Z,2.27
2022-10-07T16:37:02.357Z,2.77
2022-10-07T16:39:29.447Z,2.87
2022-10-07T16:41:56.701Z,2.50
2022-10-07T16:44:23.806Z,3.00
2022-10-07T16:46:50.954Z,3.20
2022-10-07T16:49:18.883Z,3.67
2022-10-07T16:51:47.349Z,2.93
2022-10-07T16:54:15.322Z,2.90
2022-10-07T16:56:43.237Z,2.50
2022-10-07T16:59:11.019Z,2.60
2022-10-07T17:01:38.272Z,2.77
2022-10-07T17:04:05.980Z,2.37
2022-10-07T17:06:33.728Z,2.57
2022-10-07T17:09:02.230Z,2.20
2022-10-07T17:11:29.711Z,2.50
2022-10-07T17:13:57.451Z,3.03
2022-10-07T17:16:24.765Z,2.53
2022-10-07T17:18:52.159Z,2.80
2022-10-07T17:21:19.315Z,2.50
2022-10-07T17:23:46.446Z,3.40
2022-10-07T17:26:15.094Z,2.80
2022-10-07T17:28:42.458Z,2.70
2022-10-07T17:31:10.311Z,3.60
2022-10-07T17:33:39.410Z,2.73
2022-10-07T17:36:07.697Z,2.97
2022-10-07T17:38:37.120Z,2.67
2022-10-07T17:41:10.532Z,3.30
2022-10-07T17:43:39.110Z,3.17
2022-10-07T17:46:11.718Z,3.87
2022-10-07T17:48:41.915Z,3.70
2022-10-07T17:51:09.384Z,3.33
2022-10-07T17:53:37.666Z,3.40
2022-10-07T17:56:05.016Z,4.20
2022-10-07T17:58:32.487Z,3.40
2022-10-07T18:01:04.978Z,3.50
2022-10-07T18:03:32.193Z,4.40
2022-10-07T18:05:59.298Z,3.60
2022-10-07T18:08:26.371Z,3.40
2022-10-07T18:10:53.506Z,3.50
2022-10-07T18:13:20.597Z,3.53
2022-10-07T18:15:56.766Z,3.70
2022-10-07T18:18:25.205Z,4.00
2022-10-07T18:20:52.316Z,3.67
2022-10-07T18:23:19.465Z,4.13
2022-10-07T18:25:46.568Z,4.70
2022-10-07T18:28:13.739Z,5.47
2022-10-07T18:30:40.909Z,4.80
2022-10-07T18:33:08.006Z,4.40
2022-10-07T18:35:36.466Z,4.60
2022-10-07T18:38:03.602Z,4.13
2022-10-07T18:40:30.911Z,3.53
2022-10-07T18:42:58.036Z,4.00
2022-10-07T18:45:25.262Z,4.60
2022-10-07T18:47:52.520Z,4.30
2022-10-07T18:50:19.667Z,4.70
2022-10-07T18:52:48.111Z,5.13
2022-10-07T18:55:15.225Z,4.07
2022-10-07T18:57:42.342Z,4.40
2022-10-07T19:00:10.039Z,4.47
2022-10-07T19:02:37.126Z,4.30
2022-10-07T19:05:04.426Z,5.00
2022-10-07T19:07:31.501Z,5.00
2022-10-07T19:09:59.950Z,4.90
2022-10-07T19:12:27.032Z,4.67
2022-10-07T19:14:54.121Z,4.57
2022-10-07T19:17:21.228Z,4.57
2022-10-07T19:19:48.388Z,5.57
2022-10-07T19:22:15.525Z,5.90
2022-10-07T19:24:42.626Z,5.60
2022-10-07T19:27:11.143Z,4.80
2022-10-07T19:29:38.230Z,4.53
2022-10-07T19:32:08.304Z,4.70
2022-10-07T19:34:36.136Z,5.00
2022-10-07T19:37:03.516Z,4.77
2022-10-07T19:39:30.602Z,5.03
2022-10-07T19:41:57.700Z,5.10
2022-10-07T19:44:26.281Z,4.93
2022-10-07T19:46:53.411Z,5.80
2022-10-07T19:49:20.793Z,5.93
2022-10-07T19:51:47.857Z,4.90
2022-10-07T19:54:14.930Z,5.90
2022-10-07T19:56:42.087Z,6.93
2022-10-07T19:59:10.406Z,6.57
2022-10-07T20:01:39.671Z,5.30
2022-10-07T20:04:07.728Z,5.33
2022-10-07T20:06:35.403Z,5.53
2022-10-07T20:09:02.618Z,5.47
2022-10-07T20:11:29.741Z,5.90
2022-10-07T20:13:56.859Z,6.93
2022-10-07T20:16:24.896Z,5.47
2022-10-07T20:18:57.883Z,5.37
2022-10-07T20:21:24.985Z,5.10
2022-10-07T20:23:53.182Z,5.13
2022-10-07T20:26:21.098Z,5.27
2022-10-07T20:28:48.985Z,5.00
2022-10-07T20:31:17.248Z,3.40
2022-10-07T20:33:45.436Z,4.97
2022-10-07T20:36:15.825Z,4.67
2022-10-07T20:38:42.972Z,3.53
2022-10-07T20:41:10.072Z,4.00
2022-10-07T20:43:37.213Z,3.87
2022-10-07T20:46:04.429Z,4.40
2022-10-07T20:48:31.589Z,4.40
2022-10-07T20:51:03.585Z,3.60
2022-10-07T20:53:32.044Z,4.03
2022-10-07T20:56:02.711Z,4.40
2022-10-07T20:58:31.570Z,4.60
2022-10-07T21:00:58.720Z,3.80
2022-10-07T21:03:25.856Z,4.57
2022-10-07T21:05:56.028Z,4.90
2022-10-07T21:08:23.178Z,5.40
2022-10-07T21:10:51.588Z,5.17
2022-10-07T21:13:19.418Z,4.60
2022-10-07T21:15:46.495Z,4.80
2022-10-07T21:18:13.593Z,5.07
2022-10-07T21:20:52.970Z,5.37
2022-10-07T21:23:23.399Z,4.50
2022-10-07T21:25:52.335Z,4.43
2022-10-07T21:28:19.729Z,5.00
2022-10-07T21:30:54.812Z,4.73
2022-10-07T21:33:21.957Z,5.53
2022-10-07T21:35:49.102Z,4.97
2022-10-07T21:38:16.187Z,4.97
2022-10-07T21:40:43.317Z,5.13
2022-10-07T21:43:11.761Z,6.27
2022-10-07T21:45:38.826Z,5.20
2022-10-07T21:48:05.886Z,4.83
2022-10-07T21:50:32.996Z,4.87
2022-10-07T21:53:00.142Z,4.47
2022-10-07T21:55:27.234Z,5.30
2022-10-07T21:57:54.350Z,4.50
2022-10-07T22:00:22.797Z,4.43
2022-10-07T22:02:50.282Z,5.03
2022-10-07T22:05:17.522Z,4.50
2022-10-07T22:07:44.588Z,4.90
2022-10-07T22:10:11.705Z,4.43
2022-10-07T22:12:38.878Z,4.33
2022-10-07T22:15:06.509Z,5.50
2022-10-07T22:17:34.965Z,4.30
2022-10-07T22:20:02.075Z,4.50
2022-10-07T22:22:29.252Z,4.27
2022-10-07T22:24:56.347Z,5.13
2022-10-07T22:27:23.462Z,5.13
2022-10-07T22:29:50.545Z,5.60
2022-10-07T22:32:17.653Z,4.70
2022-10-07T22:34:46.067Z,5.50
2022-10-07T22:37:13.169Z,4.07
2022-10-07T22:39:40.233Z,4.90
2022-10-07T22:42:07.332Z,3.87
2022-10-07T22:44:34.406Z,4.37
2022-10-07T22:47:01.532Z,3.87
2022-10-07T22:49:30.304Z,4.20
2022-10-07T22:51:59.155Z,4.30
2022-10-07T22:54:26.467Z,4.07
2022-10-07T22:56:53.581Z,4.17
2022-10-07T22:59:20.678Z,3.97
2022-10-07T23:01:47.738Z,3.47
2022-10-07T23:04:14.846Z,3.90
2022-10-07T23:06:41.946Z,4.60
2022-10-07T23:09:10.473Z,4.10
2022-10-07T23:11:37.542Z,4.33
2022-10-07T23:14:04.678Z,4.20
2022-10-07T23:16:31.774Z,2.90
2022-10-07T23:18:59.256Z,3.67
2022-10-07T23:21:27.427Z,4.00
2022-10-07T23:23:55.303Z,3.33
2022-10-07T23:26:24.426Z,3.83
2022-10-07T23:28:52.193Z,4.10
2022-10-07T23:31:20.292Z,3.77
2022-10-07T23:33:48.173Z,3.70
2022-10-07T23:36:16.098Z,3.53
2022-10-07T23:38:43.701Z,4.03
2022-10-07T23:41:11.428Z,3.70
2022-10-07T23:43:39.904Z,3.50
2022-10-07T23:46:08.388Z,5.20
2022-10-07T23:48:35.599Z,3.87
2022-10-07T23:51:04.077Z,4.03
2022-10-07T23:53:31.379Z,3.47
2022-10-07T23:55:58.578Z,4.03
2022-10-07T23:58:26.266Z,3.60
